sensor_id;sensor_type;location;lat;lon;timestamp;P1;durP1;ratioP1;P2;durP2;ratioP2
45316;SDS011;31053;55.870;37.592;2023-04-06T00:00:45;8.20;;;4.10;;
45316;SDS011;31053;55.870;37.592;2023-04-06T00:03:50;4.28;;;3.05;;
45316;SDS011;31053;55.870;37.592;2023-04-06T00:06:55;6.38;;;3.45;;
45316;SDS011;31053;55.870;37.592;2023-04-06T00:10:00;7.75;;;4.55;;
45316;SDS011;31053;55.870;37.592;2023-04-06T00:13:04;6.90;;;4.70;;
45316;SDS011;31053;55.870;37.592;2023-04-06T00:16:09;7.18;;;3.80;;
45316;SDS011;31053;55.870;37.592;2023-04-06T00:19:14;4.43;;;2.92;;
45316;SDS011;31053;55.870;37.592;2023-04-06T00:22:18;5.88;;;4.05;;
45316;SDS011;31053;55.870;37.592;2023-04-06T00:25:23;7.13;;;4.07;;
45316;SDS011;31053;55.870;37.592;2023-04-06T00:28:28;21.92;;;8.88;;
45316;SDS011;31053;55.870;37.592;2023-04-06T00:31:33;9.93;;;4.80;;
45316;SDS011;31053;55.870;37.592;2023-04-06T00:34:38;14.77;;;6.82;;
45316;SDS011;31053;55.870;37.592;2023-04-06T00:37:45;10.38;;;5.32;;
45316;SDS011;31053;55.870;37.592;2023-04-06T00:41:36;7.78;;;5.10;;
45316;SDS011;31053;55.870;37.592;2023-04-06T00:44:41;8.90;;;4.18;;
45316;SDS011;31053;55.870;37.592;2023-04-06T00:47:45;11.48;;;5.63;;
45316;SDS011;31053;55.870;37.592;2023-04-06T00:50:50;9.90;;;5.65;;
45316;SDS011;31053;55.870;37.592;2023-04-06T00:53:55;8.30;;;4.95;;
45316;SDS011;31053;55.870;37.592;2023-04-06T00:57:01;13.00;;;5.47;;
45316;SDS011;31053;55.870;37.592;2023-04-06T01:00:07;14.23;;;6.55;;
45316;SDS011;31053;55.870;37.592;2023-04-06T01:03:13;13.63;;;5.47;;
45316;SDS011;31053;55.870;37.592;2023-04-06T01:09:32;13.35;;;6.45;;
45316;SDS011;31053;55.870;37.592;2023-04-06T01:12:41;14.35;;;6.47;;
45316;SDS011;31053;55.870;37.592;2023-04-06T01:15:56;9.85;;;5.40;;
45316;SDS011;31053;55.870;37.592;2023-04-06T01:19:25;10.25;;;4.85;;
45316;SDS011;31053;55.870;37.592;2023-04-06T01:22:31;11.15;;;5.70;;
45316;SDS011;31053;55.870;37.592;2023-04-06T01:25:39;12.57;;;5.03;;
45316;SDS011;31053;55.870;37.592;2023-04-06T01:28:46;9.32;;;5.75;;
45316;SDS011;31053;55.870;37.592;2023-04-06T01:32:16;11.60;;;6.25;;
45316;SDS011;31053;55.870;37.592;2023-04-06T01:35:26;9.70;;;5.07;;
45316;SDS011;31053;55.870;37.592;2023-04-06T01:38:45;7.88;;;4.78;;
45316;SDS011;31053;55.870;37.592;2023-04-06T01:41:52;7.40;;;4.15;;
45316;SDS011;31053;55.870;37.592;2023-04-06T01:44:59;9.88;;;6.07;;
45316;SDS011;31053;55.870;37.592;2023-04-06T01:48:04;7.07;;;4.28;;
45316;SDS011;31053;55.870;37.592;2023-04-06T01:51:08;12.32;;;6.85;;
45316;SDS011;31053;55.870;37.592;2023-04-06T01:54:23;18.75;;;7.68;;
45316;SDS011;31053;55.870;37.592;2023-04-06T01:57:31;8.65;;;4.78;;
45316;SDS011;31053;55.870;37.592;2023-04-06T02:00:45;13.90;;;6.35;;
45316;SDS011;31053;55.870;37.592;2023-04-06T02:03:50;10.05;;;4.57;;
45316;SDS011;31053;55.870;37.592;2023-04-06T02:06:55;11.82;;;6.85;;
45316;SDS011;31053;55.870;37.592;2023-04-06T02:10:02;9.50;;;5.53;;
45316;SDS011;31053;55.870;37.592;2023-04-06T02:13:14;15.82;;;7.03;;
45316;SDS011;31053;55.870;37.592;2023-04-06T02:16:23;8.43;;;5.93;;
45316;SDS011;31053;55.870;37.592;2023-04-06T02:19:28;8.52;;;5.10;;
45316;SDS011;31053;55.870;37.592;2023-04-06T02:22:33;9.38;;;5.13;;
45316;SDS011;31053;55.870;37.592;2023-04-06T02:25:37;11.18;;;5.00;;
45316;SDS011;31053;55.870;37.592;2023-04-06T02:28:42;15.55;;;7.05;;
45316;SDS011;31053;55.870;37.592;2023-04-06T02:31:47;7.75;;;4.80;;
45316;SDS011;31053;55.870;37.592;2023-04-06T02:34:52;6.75;;;4.10;;
45316;SDS011;31053;55.870;37.592;2023-04-06T02:37:58;6.95;;;4.38;;
45316;SDS011;31053;55.870;37.592;2023-04-06T02:41:04;9.43;;;4.93;;
45316;SDS011;31053;55.870;37.592;2023-04-06T02:44:09;12.30;;;5.38;;
45316;SDS011;31053;55.870;37.592;2023-04-06T02:47:20;10.85;;;4.20;;
45316;SDS011;31053;55.870;37.592;2023-04-06T02:50:27;8.98;;;4.55;;
45316;SDS011;31053;55.870;37.592;2023-04-06T02:53:37;9.98;;;4.88;;
45316;SDS011;31053;55.870;37.592;2023-04-06T02:56:42;8.85;;;4.68;;
45316;SDS011;31053;55.870;37.592;2023-04-06T02:59:49;7.82;;;4.25;;
45316;SDS011;31053;55.870;37.592;2023-04-06T03:02:59;13.77;;;5.53;;
45316;SDS011;31053;55.870;37.592;2023-04-06T03:06:05;6.40;;;3.60;;
45316;SDS011;31053;55.870;37.592;2023-04-06T03:09:10;7.93;;;3.53;;
45316;SDS011;31053;55.870;37.592;2023-04-06T03:12:19;8.57;;;5.30;;
45316;SDS011;31053;55.870;37.592;2023-04-06T03:15:44;9.27;;;4.78;;
45316;SDS011;31053;55.870;37.592;2023-04-06T03:18:53;18.88;;;5.90;;
45316;SDS011;31053;55.870;37.592;2023-04-06T03:21:59;18.27;;;6.28;;
45316;SDS011;31053;55.870;37.592;2023-04-06T03:25:04;10.85;;;5.32;;
45316;SDS011;31053;55.870;37.592;2023-04-06T03:28:10;13.00;;;5.35;;
45316;SDS011;31053;55.870;37.592;2023-04-06T03:31:25;18.50;;;7.05;;
45316;SDS011;31053;55.870;37.592;2023-04-06T03:34:50;13.88;;;4.93;;
45316;SDS011;31053;55.870;37.592;2023-04-06T03:37:55;17.92;;;7.28;;
45316;SDS011;31053;55.870;37.592;2023-04-06T03:52:51;3.58;;;2.13;;
45316;SDS011;31053;55.870;37.592;2023-04-06T03:55:58;3.45;;;2.28;;
45316;SDS011;31053;55.870;37.592;2023-04-06T03:59:03;4.35;;;2.50;;
45316;SDS011;31053;55.870;37.592;2023-04-06T04:02:14;3.40;;;2.00;;
45316;SDS011;31053;55.870;37.592;2023-04-06T04:05:19;7.00;;;1.70;;
45316;SDS011;31053;55.870;37.592;2023-04-06T04:08:31;9.35;;;2.75;;
45316;SDS011;31053;55.870;37.592;2023-04-06T04:11:35;22.52;;;8.90;;
45316;SDS011;31053;55.870;37.592;2023-04-06T04:14:40;9.32;;;3.83;;
45316;SDS011;31053;55.870;37.592;2023-04-06T04:17:45;8.52;;;4.57;;
45316;SDS011;31053;55.870;37.592;2023-04-06T04:20:53;7.25;;;3.42;;
45316;SDS011;31053;55.870;37.592;2023-04-06T04:24:00;6.00;;;2.70;;
45316;SDS011;31053;55.870;37.592;2023-04-06T04:27:05;9.50;;;3.53;;
45316;SDS011;31053;55.870;37.592;2023-04-06T04:30:11;7.78;;;3.72;;
45316;SDS011;31053;55.870;37.592;2023-04-06T04:33:16;10.00;;;3.35;;
45316;SDS011;31053;55.870;37.592;2023-04-06T04:36:21;8.70;;;4.38;;
45316;SDS011;31053;55.870;37.592;2023-04-06T04:39:27;10.00;;;3.53;;
45316;SDS011;31053;55.870;37.592;2023-04-06T04:42:39;11.55;;;4.40;;
45316;SDS011;31053;55.870;37.592;2023-04-06T04:45:47;7.15;;;3.60;;
45316;SDS011;31053;55.870;37.592;2023-04-06T04:49:01;12.80;;;5.05;;
45316;SDS011;31053;55.870;37.592;2023-04-06T04:52:09;7.80;;;4.07;;
45316;SDS011;31053;55.870;37.592;2023-04-06T04:55:25;3.80;;;2.27;;
45316;SDS011;31053;55.870;37.592;2023-04-06T04:58:33;16.50;;;3.28;;
45316;SDS011;31053;55.870;37.592;2023-04-06T05:01:39;6.20;;;2.55;;
45316;SDS011;31053;55.870;37.592;2023-04-06T05:04:43;16.02;;;2.60;;
45316;SDS011;31053;55.870;37.592;2023-04-06T05:07:54;17.23;;;4.13;;
45316;SDS011;31053;55.870;37.592;2023-04-06T05:11:24;14.35;;;4.07;;
45316;SDS011;31053;55.870;37.592;2023-04-06T05:14:36;7.38;;;3.50;;
45316;SDS011;31053;55.870;37.592;2023-04-06T05:17:45;12.63;;;4.57;;
45316;SDS011;31053;55.870;37.592;2023-04-06T05:20:54;12.02;;;4.35;;
45316;SDS011;31053;55.870;37.592;2023-04-06T05:24:06;13.82;;;4.38;;
45316;SDS011;31053;55.870;37.592;2023-04-06T05:27:13;8.02;;;3.38;;
45316;SDS011;31053;55.870;37.592;2023-04-06T05:30:18;22.70;;;4.63;;
45316;SDS011;31053;55.870;37.592;2023-04-06T05:33:25;11.70;;;3.85;;
45316;SDS011;31053;55.870;37.592;2023-04-06T05:36:46;11.48;;;3.45;;
45316;SDS011;31053;55.870;37.592;2023-04-06T05:40:00;5.65;;;3.17;;
45316;SDS011;31053;55.870;37.592;2023-04-06T05:43:07;13.80;;;3.80;;
45316;SDS011;31053;55.870;37.592;2023-04-06T05:46:15;9.52;;;4.00;;
45316;SDS011;31053;55.870;37.592;2023-04-06T05:49:20;13.80;;;3.70;;
45316;SDS011;31053;55.870;37.592;2023-04-06T05:52:25;12.00;;;3.45;;
45316;SDS011;31053;55.870;37.592;2023-04-06T05:55:30;15.50;;;3.80;;
45316;SDS011;31053;55.870;37.592;2023-04-06T05:58:47;6.57;;;3.10;;
45316;SDS011;31053;55.870;37.592;2023-04-06T06:01:58;13.45;;;4.28;;
45316;SDS011;31053;55.870;37.592;2023-04-06T06:05:03;13.27;;;3.58;;
45316;SDS011;31053;55.870;37.592;2023-04-06T06:08:11;14.63;;;5.45;;
45316;SDS011;31053;55.870;37.592;2023-04-06T06:11:16;7.28;;;2.38;;
45316;SDS011;31053;55.870;37.592;2023-04-06T06:14:21;13.25;;;3.08;;
45316;SDS011;31053;55.870;37.592;2023-04-06T06:17:26;4.28;;;2.05;;
45316;SDS011;31053;55.870;37.592;2023-04-06T06:20:31;13.52;;;3.50;;
45316;SDS011;31053;55.870;37.592;2023-04-06T06:23:41;10.60;;;3.25;;
45316;SDS011;31053;55.870;37.592;2023-04-06T06:26:47;9.60;;;3.38;;
45316;SDS011;31053;55.870;37.592;2023-04-06T06:29:54;5.65;;;2.58;;
45316;SDS011;31053;55.870;37.592;2023-04-06T06:33:02;21.52;;;3.25;;
45316;SDS011;31053;55.870;37.592;2023-04-06T06:36:08;18.83;;;4.47;;
45316;SDS011;31053;55.870;37.592;2023-04-06T06:39:13;18.88;;;4.75;;
45316;SDS011;31053;55.870;37.592;2023-04-06T06:42:18;20.13;;;3.42;;
45316;SDS011;31053;55.870;37.592;2023-04-06T06:45:46;13.65;;;2.75;;
45316;SDS011;31053;55.870;37.592;2023-04-06T06:48:54;8.23;;;2.55;;
45316;SDS011;31053;55.870;37.592;2023-04-06T06:51:58;4.60;;;2.75;;
45316;SDS011;31053;55.870;37.592;2023-04-06T06:55:05;12.52;;;3.10;;
45316;SDS011;31053;55.870;37.592;2023-04-06T06:58:11;15.05;;;3.00;;
45316;SDS011;31053;55.870;37.592;2023-04-06T07:01:16;28.17;;;4.53;;
45316;SDS011;31053;55.870;37.592;2023-04-06T07:04:22;37.35;;;4.13;;
45316;SDS011;31053;55.870;37.592;2023-04-06T07:07:26;13.50;;;2.95;;
45316;SDS011;31053;55.870;37.592;2023-04-06T07:10:32;9.00;;;2.90;;
45316;SDS011;31053;55.870;37.592;2023-04-06T07:13:36;10.75;;;2.78;;
45316;SDS011;31053;55.870;37.592;2023-04-06T07:16:41;6.80;;;2.38;;
45316;SDS011;31053;55.870;37.592;2023-04-06T07:19:47;11.57;;;2.58;;
45316;SDS011;31053;55.870;37.592;2023-04-06T07:22:52;17.10;;;3.13;;
45316;SDS011;31053;55.870;37.592;2023-04-06T07:25:57;9.32;;;3.03;;
45316;SDS011;31053;55.870;37.592;2023-04-06T07:29:01;4.38;;;2.45;;
45316;SDS011;31053;55.870;37.592;2023-04-06T07:32:06;3.05;;;2.03;;
45316;SDS011;31053;55.870;37.592;2023-04-06T07:35:11;16.08;;;2.55;;
45316;SDS011;31053;55.870;37.592;2023-04-06T07:38:16;10.52;;;2.22;;
45316;SDS011;31053;55.870;37.592;2023-04-06T07:41:21;20.48;;;2.83;;
45316;SDS011;31053;55.870;37.592;2023-04-06T07:44:26;18.20;;;2.45;;
45316;SDS011;31053;55.870;37.592;2023-04-06T07:47:31;14.88;;;2.78;;
45316;SDS011;31053;55.870;37.592;2023-04-06T07:50:36;8.82;;;2.08;;
45316;SDS011;31053;55.870;37.592;2023-04-06T07:53:41;9.13;;;2.55;;
45316;SDS011;31053;55.870;37.592;2023-04-06T07:56:47;6.00;;;2.05;;
45316;SDS011;31053;55.870;37.592;2023-04-06T07:59:52;6.80;;;1.45;;
45316;SDS011;31053;55.870;37.592;2023-04-06T08:02:57;18.40;;;3.92;;
45316;SDS011;31053;55.870;37.592;2023-04-06T08:06:02;24.58;;;2.28;;
45316;SDS011;31053;55.870;37.592;2023-04-06T08:09:07;9.55;;;1.60;;
45316;SDS011;31053;55.870;37.592;2023-04-06T08:12:13;8.45;;;1.83;;
45316;SDS011;31053;55.870;37.592;2023-04-06T08:15:18;7.10;;;1.75;;
45316;SDS011;31053;55.870;37.592;2023-04-06T08:18:23;10.50;;;1.98;;
45316;SDS011;31053;55.870;37.592;2023-04-06T08:21:28;10.30;;;1.67;;
45316;SDS011;31053;55.870;37.592;2023-04-06T08:24:33;10.07;;;1.65;;
45316;SDS011;31053;55.870;37.592;2023-04-06T08:27:37;15.88;;;2.58;;
45316;SDS011;31053;55.870;37.592;2023-04-06T08:30:42;24.20;;;2.47;;
45316;SDS011;31053;55.870;37.592;2023-04-06T08:33:47;3.92;;;1.50;;
45316;SDS011;31053;55.870;37.592;2023-04-06T08:36:52;9.07;;;1.50;;
45316;SDS011;31053;55.870;37.592;2023-04-06T08:39:57;7.50;;;2.53;;
45316;SDS011;31053;55.870;37.592;2023-04-06T08:43:01;20.42;;;2.08;;
45316;SDS011;31053;55.870;37.592;2023-04-06T08:46:07;12.65;;;2.05;;
45316;SDS011;31053;55.870;37.592;2023-04-06T08:49:12;7.70;;;1.42;;
45316;SDS011;31053;55.870;37.592;2023-04-06T08:52:18;9.40;;;1.33;;
45316;SDS011;31053;55.870;37.592;2023-04-06T08:55:23;8.75;;;1.58;;
45316;SDS011;31053;55.870;37.592;2023-04-06T09:06:36;23.00;;;3.35;;
45316;SDS011;31053;55.870;37.592;2023-04-06T09:11:49;14.50;;;1.45;;
45316;SDS011;31053;55.870;37.592;2023-04-06T09:21:03;8.70;;;1.50;;
45316;SDS011;31053;55.870;37.592;2023-04-06T09:24:10;6.45;;;1.15;;
45316;SDS011;31053;55.870;37.592;2023-04-06T09:27:17;7.07;;;1.00;;
45316;SDS011;31053;55.870;37.592;2023-04-06T09:30:22;8.57;;;2.22;;
45316;SDS011;31053;55.870;37.592;2023-04-06T09:35:07;5.03;;;1.85;;
45316;SDS011;31053;55.870;37.592;2023-04-06T09:42:35;9.48;;;1.25;;
45316;SDS011;31053;55.870;37.592;2023-04-06T09:45:40;11.93;;;1.98;;
45316;SDS011;31053;55.870;37.592;2023-04-06T09:50:14;6.20;;;1.92;;
45316;SDS011;31053;55.870;37.592;2023-04-06T09:53:20;16.02;;;1.90;;
45316;SDS011;31053;55.870;37.592;2023-04-06T09:56:27;14.95;;;2.08;;
45316;SDS011;31053;55.870;37.592;2023-04-06T09:59:48;3.53;;;1.52;;
45316;SDS011;31053;55.870;37.592;2023-04-06T10:06:46;13.50;;;1.25;;
45316;SDS011;31053;55.870;37.592;2023-04-06T10:11:05;8.25;;;1.42;;
45316;SDS011;31053;55.870;37.592;2023-04-06T14:48:44;1.48;;;0.63;;
45316;SDS011;31053;55.870;37.592;2023-04-06T14:51:49;11.93;;;1.40;;
45316;SDS011;31053;55.870;37.592;2023-04-06T14:57:46;0.95;;;0.50;;
45316;SDS011;31053;55.870;37.592;2023-04-06T15:25:38;4.22;;;0.95;;
45316;SDS011;31053;55.870;37.592;2023-04-06T15:28:45;14.35;;;0.82;;
45316;SDS011;31053;55.870;37.592;2023-04-06T15:31:56;7.60;;;1.10;;
45316;SDS011;31053;55.870;37.592;2023-04-06T15:35:10;17.33;;;2.35;;
45316;SDS011;31053;55.870;37.592;2023-04-06T15:38:22;6.65;;;1.02;;
45316;SDS011;31053;55.870;37.592;2023-04-06T15:41:42;5.25;;;1.13;;
45316;SDS011;31053;55.870;37.592;2023-04-06T15:44:59;4.25;;;0.70;;
45316;SDS011;31053;55.870;37.592;2023-04-06T15:48:48;5.75;;;0.63;;
45316;SDS011;31053;55.870;37.592;2023-04-06T15:51:55;6.63;;;0.90;;
45316;SDS011;31053;55.870;37.592;2023-04-06T15:55:09;4.30;;;1.33;;
45316;SDS011;31053;55.870;37.592;2023-04-06T15:58:16;4.07;;;0.93;;
45316;SDS011;31053;55.870;37.592;2023-04-06T16:01:24;6.45;;;1.08;;
45316;SDS011;31053;55.870;37.592;2023-04-06T16:04:30;2.40;;;0.77;;
45316;SDS011;31053;55.870;37.592;2023-04-06T16:07:38;5.20;;;0.77;;
45316;SDS011;31053;55.870;37.592;2023-04-06T16:10:43;3.50;;;0.80;;
45316;SDS011;31053;55.870;37.592;2023-04-06T16:13:50;4.93;;;1.30;;
45316;SDS011;31053;55.870;37.592;2023-04-06T16:16:59;12.18;;;1.50;;
45316;SDS011;31053;55.870;37.592;2023-04-06T16:20:04;1.00;;;0.60;;
45316;SDS011;31053;55.870;37.592;2023-04-06T16:23:15;6.03;;;0.77;;
45316;SDS011;31053;55.870;37.592;2023-04-06T16:26:25;13.77;;;1.20;;
45316;SDS011;31053;55.870;37.592;2023-04-06T16:29:33;2.33;;;0.90;;
45316;SDS011;31053;55.870;37.592;2023-04-06T16:32:42;8.73;;;2.05;;
45316;SDS011;31053;55.870;37.592;2023-04-06T16:35:52;7.10;;;1.35;;
45316;SDS011;31053;55.870;37.592;2023-04-06T16:39:08;7.07;;;1.98;;
45316;SDS011;31053;55.870;37.592;2023-04-06T16:42:13;7.40;;;2.22;;
45316;SDS011;31053;55.870;37.592;2023-04-06T16:45:25;3.72;;;1.80;;
45316;SDS011;31053;55.870;37.592;2023-04-06T16:48:33;5.10;;;1.25;;
45316;SDS011;31053;55.870;37.592;2023-04-06T16:51:39;7.35;;;1.63;;
45316;SDS011;31053;55.870;37.592;2023-04-06T16:54:48;5.40;;;2.20;;
45316;SDS011;31053;55.870;37.592;2023-04-06T16:57:57;9.68;;;2.00;;
45316;SDS011;31053;55.870;37.592;2023-04-06T17:01:16;9.70;;;2.90;;
45316;SDS011;31053;55.870;37.592;2023-04-06T17:04:24;16.85;;;7.30;;
45316;SDS011;31053;55.870;37.592;2023-04-06T17:07:33;8.60;;;3.35;;
45316;SDS011;31053;55.870;37.592;2023-04-06T17:18:06;11.93;;;4.82;;
45316;SDS011;31053;55.870;37.592;2023-04-06T17:21:10;6.50;;;2.25;;
45316;SDS011;31053;55.870;37.592;2023-04-06T17:24:17;7.20;;;1.70;;
45316;SDS011;31053;55.870;37.592;2023-04-06T17:27:21;5.15;;;2.28;;
45316;SDS011;31053;55.870;37.592;2023-04-06T17:30:29;9.48;;;1.50;;
45316;SDS011;31053;55.870;37.592;2023-04-06T17:33:39;15.27;;;3.50;;
45316;SDS011;31053;55.870;37.592;2023-04-06T17:36:44;7.00;;;2.60;;
45316;SDS011;31053;55.870;37.592;2023-04-06T17:39:49;15.43;;;2.40;;
45316;SDS011;31053;55.870;37.592;2023-04-06T17:42:54;9.82;;;1.98;;
45316;SDS011;31053;55.870;37.592;2023-04-06T17:45:59;5.43;;;1.60;;
45316;SDS011;31053;55.870;37.592;2023-04-06T17:49:04;13.20;;;3.50;;
45316;SDS011;31053;55.870;37.592;2023-04-06T17:52:11;6.88;;;2.03;;
45316;SDS011;31053;55.870;37.592;2023-04-06T17:55:16;5.97;;;2.35;;
45316;SDS011;31053;55.870;37.592;2023-04-06T17:58:31;13.73;;;1.98;;
45316;SDS011;31053;55.870;37.592;2023-04-06T18:01:37;3.78;;;1.90;;
45316;SDS011;31053;55.870;37.592;2023-04-06T18:05:04;8.52;;;1.77;;
45316;SDS011;31053;55.870;37.592;2023-04-06T18:08:09;10.93;;;1.70;;
45316;SDS011;31053;55.870;37.592;2023-04-06T18:11:18;6.32;;;2.17;;
45316;SDS011;31053;55.870;37.592;2023-04-06T18:14:26;4.97;;;2.00;;
45316;SDS011;31053;55.870;37.592;2023-04-06T18:17:31;12.93;;;2.65;;
45316;SDS011;31053;55.870;37.592;2023-04-06T18:20:41;10.68;;;2.03;;
45316;SDS011;31053;55.870;37.592;2023-04-06T18:23:46;5.30;;;2.42;;
45316;SDS011;31053;55.870;37.592;2023-04-06T18:27:02;35.75;;;16.15;;
45316;SDS011;31053;55.870;37.592;2023-04-06T18:30:07;16.35;;;5.20;;
45316;SDS011;31053;55.870;37.592;2023-04-06T18:33:12;13.40;;;2.60;;
45316;SDS011;31053;55.870;37.592;2023-04-06T18:36:17;5.18;;;3.38;;
45316;SDS011;31053;55.870;37.592;2023-04-06T18:39:22;6.78;;;1.92;;
45316;SDS011;31053;55.870;37.592;2023-04-06T18:42:35;6.20;;;1.85;;
45316;SDS011;31053;55.870;37.592;2023-04-06T18:45:41;9.73;;;2.40;;
45316;SDS011;31053;55.870;37.592;2023-04-06T18:48:50;7.60;;;2.20;;
45316;SDS011;31053;55.870;37.592;2023-04-06T18:51:55;11.60;;;3.33;;
45316;SDS011;31053;55.870;37.592;2023-04-06T18:58:07;9.73;;;1.65;;
45316;SDS011;31053;55.870;37.592;2023-04-06T19:01:22;6.15;;;1.70;;
45316;SDS011;31053;55.870;37.592;2023-04-06T19:08:45;8.15;;;1.77;;
45316;SDS011;31053;55.870;37.592;2023-04-06T19:13:12;5.20;;;2.13;;
45316;SDS011;31053;55.870;37.592;2023-04-06T19:16:21;5.97;;;2.00;;
45316;SDS011;31053;55.870;37.592;2023-04-06T19:19:31;7.78;;;3.50;;
45316;SDS011;31053;55.870;37.592;2023-04-06T19:22:36;5.00;;;2.00;;
45316;SDS011;31053;55.870;37.592;2023-04-06T19:25:43;9.65;;;2.63;;
45316;SDS011;31053;55.870;37.592;2023-04-06T19:28:51;4.65;;;2.33;;
45316;SDS011;31053;55.870;37.592;2023-04-06T19:31:56;15.52;;;3.60;;
45316;SDS011;31053;55.870;37.592;2023-04-06T19:35:11;6.10;;;2.08;;
45316;SDS011;31053;55.870;37.592;2023-04-06T19:39:05;4.07;;;1.63;;
45316;SDS011;31053;55.870;37.592;2023-04-06T19:42:47;4.30;;;1.35;;
45316;SDS011;31053;55.870;37.592;2023-04-06T19:47:05;7.40;;;1.00;;
45316;SDS011;31053;55.870;37.592;2023-04-06T19:50:09;4.53;;;1.58;;
45316;SDS011;31053;55.870;37.592;2023-04-06T19:53:20;4.75;;;1.75;;
45316;SDS011;31053;55.870;37.592;2023-04-06T19:56:28;6.03;;;1.52;;
45316;SDS011;31053;55.870;37.592;2023-04-06T19:59:36;6.47;;;2.88;;
45316;SDS011;31053;55.870;37.592;2023-04-06T20:02:44;12.60;;;2.33;;
45316;SDS011;31053;55.870;37.592;2023-04-06T20:05:57;11.13;;;1.80;;
45316;SDS011;31053;55.870;37.592;2023-04-06T20:09:14;5.78;;;2.03;;
45316;SDS011;31053;55.870;37.592;2023-04-06T20:12:21;10.23;;;1.25;;
45316;SDS011;31053;55.870;37.592;2023-04-06T20:15:33;6.90;;;1.30;;
45316;SDS011;31053;55.870;37.592;2023-04-06T20:19:52;5.75;;;1.90;;
45316;SDS011;31053;55.870;37.592;2023-04-06T20:22:59;8.05;;;3.33;;
45316;SDS011;31053;55.870;37.592;2023-04-06T20:26:19;3.50;;;1.60;;
45316;SDS011;31053;55.870;37.592;2023-04-06T20:29:28;6.78;;;2.47;;
45316;SDS011;31053;55.870;37.592;2023-04-06T20:32:36;8.40;;;1.98;;
45316;SDS011;31053;55.870;37.592;2023-04-06T20:35:58;2.80;;;1.35;;
45316;SDS011;31053;55.870;37.592;2023-04-06T20:39:06;9.00;;;2.58;;
45316;SDS011;31053;55.870;37.592;2023-04-06T20:42:11;5.00;;;1.88;;
45316;SDS011;31053;55.870;37.592;2023-04-06T20:45:26;6.38;;;2.03;;
45316;SDS011;31053;55.870;37.592;2023-04-06T20:48:31;4.32;;;1.90;;
45316;SDS011;31053;55.870;37.592;2023-04-06T20:51:39;5.28;;;1.60;;
45316;SDS011;31053;55.870;37.592;2023-04-06T20:54:52;5.72;;;2.17;;
45316;SDS011;31053;55.870;37.592;2023-04-06T20:57:59;7.40;;;1.48;;
45316;SDS011;31053;55.870;37.592;2023-04-06T21:01:11;5.43;;;1.08;;
45316;SDS011;31053;55.870;37.592;2023-04-06T21:04:20;10.23;;;1.60;;
45316;SDS011;31053;55.870;37.592;2023-04-06T21:07:25;2.25;;;0.93;;
45316;SDS011;31053;55.870;37.592;2023-04-06T21:10:44;4.22;;;1.92;;
45316;SDS011;31053;55.870;37.592;2023-04-06T21:13:53;4.28;;;1.20;;
45316;SDS011;31053;55.870;37.592;2023-04-06T21:16:58;3.05;;;1.20;;
45316;SDS011;31053;55.870;37.592;2023-04-06T21:20:04;1.55;;;0.90;;
45316;SDS011;31053;55.870;37.592;2023-04-06T21:23:10;2.72;;;1.05;;
45316;SDS011;31053;55.870;37.592;2023-04-06T21:26:15;3.55;;;1.05;;
45316;SDS011;31053;55.870;37.592;2023-04-06T21:32:46;5.43;;;2.30;;
45316;SDS011;31053;55.870;37.592;2023-04-06T21:35:51;2.05;;;1.00;;
45316;SDS011;31053;55.870;37.592;2023-04-06T21:39:05;2.35;;;1.00;;
45316;SDS011;31053;55.870;37.592;2023-04-06T21:42:17;7.10;;;1.10;;
45316;SDS011;31053;55.870;37.592;2023-04-06T21:45:39;5.03;;;1.70;;
45316;SDS011;31053;55.870;37.592;2023-04-06T21:48:44;6.40;;;1.30;;
45316;SDS011;31053;55.870;37.592;2023-04-06T21:51:56;6.43;;;1.15;;
45316;SDS011;31053;55.870;37.592;2023-04-06T21:55:08;4.95;;;1.13;;
45316;SDS011;31053;55.870;37.592;2023-04-06T21:58:14;1.55;;;0.73;;
45316;SDS011;31053;55.870;37.592;2023-04-06T22:01:19;1.42;;;0.73;;
45316;SDS011;31053;55.870;37.592;2023-04-06T22:04:24;2.88;;;1.00;;
45316;SDS011;31053;55.870;37.592;2023-04-06T22:07:32;4.05;;;1.00;;
45316;SDS011;31053;55.870;37.592;2023-04-06T22:10:38;0.90;;;0.80;;
45316;SDS011;31053;55.870;37.592;2023-04-06T22:13:43;1.48;;;0.75;;
45316;SDS011;31053;55.870;37.592;2023-04-06T22:20:14;2.15;;;0.80;;
45316;SDS011;31053;55.870;37.592;2023-04-06T22:23:19;3.05;;;1.00;;
45316;SDS011;31053;55.870;37.592;2023-04-06T22:26:24;2.33;;;1.02;;
45316;SDS011;31053;55.870;37.592;2023-04-06T22:29:29;8.73;;;1.20;;
45316;SDS011;31053;55.870;37.592;2023-04-06T22:32:34;1.13;;;0.80;;
45316;SDS011;31053;55.870;37.592;2023-04-06T22:35:39;2.33;;;0.70;;
45316;SDS011;31053;55.870;37.592;2023-04-06T22:38:44;2.70;;;0.68;;
45316;SDS011;31053;55.870;37.592;2023-04-06T22:41:49;5.05;;;1.90;;
45316;SDS011;31053;55.870;37.592;2023-04-06T22:44:56;0.90;;;0.50;;
45316;SDS011;31053;55.870;37.592;2023-04-06T22:48:01;2.65;;;0.82;;
45316;SDS011;31053;55.870;37.592;2023-04-06T22:51:05;1.70;;;1.05;;
45316;SDS011;31053;55.870;37.592;2023-04-06T22:54:10;0.82;;;0.60;;
45316;SDS011;31053;55.870;37.592;2023-04-06T22:57:15;3.90;;;0.60;;
45316;SDS011;31053;55.870;37.592;2023-04-06T23:00:23;4.57;;;1.38;;
45316;SDS011;31053;55.870;37.592;2023-04-06T23:03:30;3.85;;;1.05;;
45316;SDS011;31053;55.870;37.592;2023-04-06T23:06:36;2.00;;;0.90;;
45316;SDS011;31053;55.870;37.592;2023-04-06T23:09:41;2.15;;;0.95;;
45316;SDS011;31053;55.870;37.592;2023-04-06T23:12:47;0.70;;;0.60;;
45316;SDS011;31053;55.870;37.592;2023-04-06T23:15:52;1.92;;;0.50;;
45316;SDS011;31053;55.870;37.592;2023-04-06T23:19:02;3.40;;;0.88;;
45316;SDS011;31053;55.870;37.592;2023-04-06T23:22:07;1.90;;;1.00;;
45316;SDS011;31053;55.870;37.592;2023-04-06T23:25:12;1.77;;;0.73;;
45316;SDS011;31053;55.870;37.592;2023-04-06T23:28:16;2.05;;;0.98;;
45316;SDS011;31053;55.870;37.592;2023-04-06T23:31:21;1.60;;;0.60;;
45316;SDS011;31053;55.870;37.592;2023-04-06T23:34:26;5.70;;;1.17;;
45316;SDS011;31053;55.870;37.592;2023-04-06T23:37:32;1.77;;;0.90;;
45316;SDS011;31053;55.870;37.592;2023-04-06T23:40:37;0.85;;;0.50;;
45316;SDS011;31053;55.870;37.592;2023-04-06T23:43:41;1.85;;;0.70;;
45316;SDS011;31053;55.870;37.592;2023-04-06T23:46:47;1.23;;;0.70;;
45316;SDS011;31053;55.870;37.592;2023-04-06T23:49:53;2.08;;;0.40;;
45316;SDS011;31053;55.870;37.592;2023-04-06T23:52:59;2.92;;;1.30;;
45316;SDS011;31053;55.870;37.592;2023-04-06T23:56:04;1.48;;;0.70;;
45316;SDS011;31053;55.870;37.592;2023-04-06T23:59:09;3.22;;;0.77;;
